Time;durP1;ratioP1;P1;durP2;ratioP2;P2;SDS_P1;SDS_P2;PMS_P1;PMS_P2;Temp;Humidity;BMP_temperature;BMP_pressure;BME280_temperature;BME280_humidity;BME280_pressure;Samples;Min_cycle;Max_cycle;Signal;HPM_P1;HPM_P2
2024/01/27 00:00:27;;;;;;;7.67;2.70;;;;;;;0.63;100.00;146399.44;4976143;28;20732;-64
2024/01/27 00:02:54;;;;;;;7.03;2.57;;;;;;;0.59;100.00;146390.81;4976504;28;20244;-64
2024/01/27 00:05:21;;;;;;;6.23;2.23;;;;;;;0.55;100.00;146382.13;4973187;28;20224;-64
2024/01/27 00:07:47;;;;;;;10.90;2.63;;;;;;;0.53;100.00;146375.97;4976686;28;20248;-64
2024/01/27 00:10:15;;;;;;;8.17;2.40;;;;;;;0.53;100.00;146375.97;4971821;28;20227;-64
2024/01/27 00:12:42;;;;;;;5.27;2.20;;;;;;;0.52;100.00;146374.75;4973707;28;20231;-64
2024/01/27 00:15:09;;;;;;;6.17;1.93;;;;;;;0.51;100.00;146372.28;4972382;28;20308;-64
2024/01/27 00:17:36;;;;;;;7.33;2.20;;;;;;;0.46;100.00;146359.91;4973089;28;20241;-64
2024/01/27 00:20:03;;;;;;;10.13;2.37;;;;;;;0.44;100.00;146354.97;4976421;28;20225;-65
2024/01/27 00:22:29;;;;;;;6.10;2.20;;;;;;;0.37;100.00;146337.66;4973481;28;20635;-65
2024/01/27 00:24:56;;;;;;;5.07;2.17;;;;;;;0.30;100.00;146321.56;4975062;28;20236;-64
2024/01/27 00:27:24;;;;;;;6.60;2.33;;;;;;;0.37;100.00;146337.66;4973820;28;20231;-64
2024/01/27 00:29:51;;;;;;;8.40;2.37;;;;;;;0.37;100.00;146337.66;4973840;28;20232;-64
2024/01/27 00:32:17;;;;;;;9.33;2.30;;;;;;;0.33;100.00;146328.97;4971372;28;20238;-64
2024/01/27 00:34:44;;;;;;;4.83;1.87;;;;;;;0.32;100.00;146325.28;4977686;28;20589;-64
2024/01/27 00:37:11;;;;;;;9.53;2.30;;;;;;;0.29;100.00;146320.34;4973014;28;20239;-64
2024/01/27 00:39:37;;;;;;;7.57;2.33;;;;;;;0.34;100.00;146330.25;4973337;28;20751;-64
2024/01/27 00:42:04;;;;;;;6.43;2.53;;;;;;;0.45;100.00;146357.44;4976079;28;20237;-64
2024/01/27 00:44:32;;;;;;;9.03;2.53;;;;;;;0.51;100.00;146371.03;4970692;28;20235;-64
2024/01/27 00:46:59;;;;;;;5.87;2.20;;;;;;;0.42;100.00;146351.25;4974273;28;20244;-64
2024/01/27 00:49:25;;;;;;;6.93;2.30;;;;;;;0.40;100.00;146345.06;4972430;28;20220;-64
2024/01/27 00:51:52;;;;;;;6.97;2.03;;;;;;;0.43;100.00;146353.72;4972725;28;20235;-64
2024/01/27 00:54:18;;;;;;;11.67;2.57;;;;;;;0.45;100.00;146357.44;4974738;28;20251;-64
2024/01/27 00:56:45;;;;;;;8.20;2.20;;;;;;;0.60;100.00;146393.28;4982295;28;20588;-64
2024/01/27 00:59:12;;;;;;;6.90;2.43;;;;;;;0.67;100.00;146409.34;4976937;28;20264;-64
2024/01/27 01:01:40;;;;;;;10.50;2.40;;;;;;;0.60;100.00;146393.28;4978143;28;20250;-64
2024/01/27 01:04:08;;;;;;;6.10;2.10;;;;;;;0.58;100.00;146388.34;4974749;28;20233;-64
2024/01/27 01:06:34;;;;;;;6.93;2.33;;;;;;;0.63;100.00;146400.72;4973647;28;20713;-64
2024/01/27 01:09:02;;;;;;;7.03;2.40;;;;;;;0.61;100.00;146395.75;4982429;28;20228;-64
2024/01/27 01:11:28;;;;;;;9.90;2.80;;;;;;;0.58;100.00;146388.34;4978172;28;20323;-64
2024/01/27 01:13:55;;;;;;;6.83;2.70;;;;;;;0.59;100.00;146390.81;4976546;28;20232;-64
2024/01/27 01:16:22;;;;;;;9.13;2.27;;;;;;;0.56;100.00;146383.38;4978122;28;20227;-64
2024/01/27 01:18:49;;;;;;;7.47;2.27;;;;;;;0.46;100.00;146358.66;4978666;28;20239;-64
2024/01/27 01:21:16;;;;;;;7.07;1.93;;;;;;;0.34;100.00;146330.25;4975368;28;20231;-64
2024/01/27 01:23:43;;;;;;;9.17;1.67;;;;;;;0.27;100.00;146314.16;4979156;28;20237;-64
2024/01/27 01:26:09;;;;;;;6.27;2.00;;;;;;;0.17;100.00;146289.41;4979029;28;20233;-64
2024/01/27 01:28:37;;;;;;;7.30;2.60;;;;;;;0.10;100.00;146273.38;4979176;28;20566;-64
2024/01/27 01:31:03;;;;;;;8.37;2.30;;;;;;;0.07;100.00;146267.16;4978887;28;20324;-64
2024/01/27 01:33:30;;;;;;;8.53;2.33;;;;;;;0.07;100.00;146267.16;4973857;28;20593;-64
2024/01/27 01:35:58;;;;;;;10.57;2.10;;;;;;;-0.03;100.00;146242.47;4979031;28;20236;-64
2024/01/27 01:38:28;;;;;;;5.43;2.30;;;;;;;-0.06;100.00;146236.28;4972921;28;20420;-64
2024/01/27 01:40:54;;;;;;;8.10;2.37;;;;;;;-0.08;100.00;146231.34;4978352;28;20232;-64
2024/01/27 01:43:21;;;;;;;6.50;2.50;;;;;;;-0.09;100.00;146227.66;4970434;28;20554;-64
2024/01/27 01:45:50;;;;;;;6.77;2.10;;;;;;;-0.10;100.00;146226.38;4978887;28;20233;-64
2024/01/27 01:48:17;;;;;;;5.60;2.20;;;;;;;-0.18;100.00;146207.88;4975409;28;20237;-64
2024/01/27 01:50:43;;;;;;;5.37;1.97;;;;;;;-0.17;100.00;146210.34;4977693;28;20724;-64
2024/01/27 01:53:12;;;;;;;6.17;2.17;;;;;;;-0.21;100.00;146200.44;4990201;28;20234;-64
2024/01/27 01:55:38;;;;;;;11.90;2.10;;;;;;;-0.24;100.00;146191.78;4979638;28;20236;-64
2024/01/27 01:58:05;;;;;;;8.23;1.90;;;;;;;-0.31;100.00;146176.94;4978041;28;20226;-64
2024/01/27 02:00:32;;;;;;;7.70;2.20;;;;;;;-0.34;100.00;146169.53;4973234;28;20232;-64
2024/01/27 02:02:59;;;;;;;13.77;2.43;;;;;;;-0.32;100.00;146173.25;4977105;28;20237;-64
2024/01/27 02:05:26;;;;;;;6.23;2.13;;;;;;;-0.28;100.00;146183.16;4973875;28;20213;-64
2024/01/27 02:07:56;;;;;;;6.50;1.80;;;;;;;-0.34;100.00;146168.31;4976952;28;20240;-64
2024/01/27 02:10:24;;;;;;;5.87;1.90;;;;;;;-0.35;100.00;146167.06;4973703;28;20236;-64
2024/01/27 02:12:50;;;;;;;4.03;1.80;;;;;;;-0.40;100.00;146153.50;4974399;28;20233;-64
2024/01/27 02:15:17;;;;;;;6.37;2.27;;;;;;;-0.46;100.00;146141.13;4973497;28;20260;-65
2024/01/27 02:17:44;;;;;;;13.63;2.13;;;;;;;-0.46;100.00;146139.88;4975306;28;20233;-65
2024/01/27 02:20:11;;;;;;;6.90;1.80;;;;;;;-0.46;100.00;146139.88;4973161;28;20235;-65
2024/01/27 02:22:36;;;;;;;5.90;1.80;;;;;;;-0.46;100.00;146141.13;4976933;28;20252;-65
2024/01/27 02:25:05;;;;;;;7.47;1.83;;;;;;;-0.45;100.00;146143.59;4976840;28;20233;-64
2024/01/27 02:27:32;;;;;;;3.57;1.80;;;;;;;-0.48;100.00;146136.19;4976392;28;20241;-65
2024/01/27 02:29:59;;;;;;;8.13;1.77;;;;;;;-0.56;100.00;146115.19;4977630;28;20239;-64
2024/01/27 02:32:25;;;;;;;7.00;1.90;;;;;;;-0.57;100.00;146112.72;4973130;28;20573;-64
2024/01/27 02:34:52;;;;;;;8.83;2.10;;;;;;;-0.50;100.00;146131.25;4976143;28;20252;-64
2024/01/27 02:37:19;;;;;;;6.83;2.03;;;;;;;-0.54;100.00;146121.34;4974787;28;20240;-64
2024/01/27 02:39:46;;;;;;;9.33;2.40;;;;;;;-0.57;100.00;146113.94;4965681;28;20237;-64
2024/01/27 02:42:14;;;;;;;4.87;1.70;;;;;;;-0.64;100.00;146096.66;4973223;28;20241;-64
2024/01/27 02:44:40;;;;;;;6.00;1.87;;;;;;;-0.53;100.00;146122.63;4975363;28;20233;-64
2024/01/27 02:47:07;;;;;;;10.00;2.37;;;;;;;-0.64;100.00;146096.66;4977933;28;20314;-64
2024/01/27 02:49:34;;;;;;;6.00;1.87;;;;;;;-0.67;100.00;146090.50;4972736;28;20333;-64
2024/01/27 02:52:00;;;;;;;7.40;1.90;;;;;;;-0.72;100.00;146078.13;4976502;28;20232;-64
2024/01/27 02:54:27;;;;;;;7.27;2.00;;;;;;;-0.70;100.00;146083.09;4974585;28;20243;-64
2024/01/27 02:56:54;;;;;;;8.83;1.50;;;;;;;-0.82;100.00;146054.63;4974263;28;20237;-64
2024/01/27 02:59:21;;;;;;;10.17;2.17;;;;;;;-0.70;100.00;146083.09;4972657;28;20235;-64
2024/01/27 03:01:48;;;;;;;8.67;2.03;;;;;;;-0.76;100.00;146069.47;4976250;28;20233;-64
2024/01/27 03:04:15;;;;;;;4.80;1.93;;;;;;;-0.81;100.00;146055.91;4973794;28;20266;-64
2024/01/27 03:06:41;;;;;;;8.67;1.70;;;;;;;-0.77;100.00;146065.78;4976817;28;20700;-63
2024/01/27 03:09:08;;;;;;;9.00;1.50;;;;;;;-0.77;100.00;146065.78;4963602;28;20225;-63
2024/01/27 03:11:35;;;;;;;6.50;1.83;;;;;;;-0.87;100.00;146041.06;4976052;28;20316;-63
2024/01/27 03:14:01;;;;;;;7.40;2.33;;;;;;;-0.87;100.00;146041.06;4973266;28;20239;-63
2024/01/27 03:16:29;;;;;;;9.77;1.97;;;;;;;-0.84;100.00;146049.69;4973597;28;20329;-63
2024/01/27 03:18:56;;;;;;;11.40;2.70;;;;;;;-0.82;100.00;146054.63;4977851;28;20236;-63
2024/01/27 03:21:22;;;;;;;5.00;1.53;;;;;;;-0.82;100.00;146053.44;4977914;28;20231;-63
2024/01/27 03:23:49;;;;;;;8.27;1.73;;;;;;;-0.80;100.00;146059.59;4975270;28;20236;-64
2024/01/27 03:26:16;;;;;;;10.60;2.20;;;;;;;-0.85;100.00;146046.00;4971795;28;20237;-64
2024/01/27 03:28:42;;;;;;;10.33;1.90;;;;;;;-0.85;100.00;146047.22;4976028;28;20239;-63
2024/01/27 03:31:09;;;;;;;4.83;1.80;;;;;;;-0.87;100.00;146041.06;4972111;28;20240;-64
2024/01/27 03:33:37;;;;;;;4.73;1.50;;;;;;;-0.94;100.00;146025.00;4972018;28;21073;-64
2024/01/27 03:36:04;;;;;;;7.63;1.80;;;;;;;-0.97;100.00;146018.84;4976774;28;20244;-64
2024/01/27 03:38:30;;;;;;;7.83;1.73;;;;;;;-1.02;100.00;146005.22;4972624;28;20233;-64
2024/01/27 03:40:58;;;;;;;5.90;1.70;;;;;;;-1.00;100.00;146011.44;4976275;28;20734;-63
2024/01/27 03:43:27;;;;;;;7.77;1.83;;;;;;;-1.02;100.00;146005.22;4970383;28;20217;-63
2024/01/27 03:45:54;;;;;;;7.20;2.10;;;;;;;-1.02;100.00;146006.47;4974121;28;20244;-64
2024/01/27 03:48:20;;;;;;;9.57;1.93;;;;;;;-1.10;100.00;145986.72;4989556;28;20227;-63
2024/01/27 03:50:48;;;;;;;6.03;2.07;;;;;;;-1.14;100.00;145978.09;4973451;28;20223;-63
2024/01/27 03:53:15;;;;;;;7.83;1.87;;;;;;;-1.12;100.00;145983.03;4975476;28;20228;-63
2024/01/27 03:55:42;;;;;;;11.60;2.00;;;;;;;-1.10;100.00;145986.72;4976016;28;20231;-63
2024/01/27 03:58:08;;;;;;;9.67;1.90;;;;;;;-1.08;100.00;145991.66;4972544;28;20237;-63
2024/01/27 04:00:35;;;;;;;6.67;1.87;;;;;;;-1.10;100.00;145987.97;4976496;28;20238;-63
2024/01/27 04:03:02;;;;;;;7.30;1.50;;;;;;;-1.19;100.00;145966.97;4975312;28;20226;-63
2024/01/27 04:05:30;;;;;;;7.53;2.10;;;;;;;-1.22;100.00;145959.56;4974147;28;20233;-63
2024/01/27 04:07:58;;;;;;;11.03;1.83;;;;;;;-1.13;100.00;145979.31;4975223;28;20675;-63
2024/01/27 04:10:25;;;;;;;3.30;1.77;;;;;;;-1.09;100.00;145989.19;4974613;28;20246;-63
2024/01/27 04:12:51;;;;;;;6.07;1.70;;;;;;;-1.15;100.00;145974.38;4975734;28;20607;-63
2024/01/27 04:15:18;;;;;;;6.87;1.50;;;;;;;-1.22;100.00;145959.56;4975183;28;20232;-63
2024/01/27 04:17:45;;;;;;;4.47;1.33;;;;;;;-1.14;100.00;145978.09;4979420;28;20240;-63
2024/01/27 04:20:12;;;;;;;6.10;1.93;;;;;;;-1.21;100.00;145960.81;4978840;28;20551;-63
2024/01/27 04:22:39;;;;;;;4.20;1.97;;;;;;;-1.27;100.00;145947.19;4976519;28;20232;-63
2024/01/27 04:25:08;;;;;;;9.23;2.10;;;;;;;-1.32;100.00;145933.63;4977155;28;20228;-63
2024/01/27 04:27:38;;;;;;;7.70;1.87;;;;;;;-1.31;100.00;145937.31;4973318;28;20235;-63
2024/01/27 04:32:54;;;;;;;8.70;2.03;;;;;;;-1.36;100.00;145926.22;5075405;23;20233;-64
2024/01/27 04:35:21;;;;;;;4.50;1.80;;;;;;;-1.33;100.00;145932.38;4969374;28;20238;-64
2024/01/27 04:37:47;;;;;;;5.93;2.03;;;;;;;-1.37;100.00;145923.75;4974206;28;20238;-64
2024/01/27 04:40:15;;;;;;;10.53;1.90;;;;;;;-1.31;100.00;145937.31;4970640;28;20225;-64
2024/01/27 04:42:42;;;;;;;10.90;1.70;;;;;;;-1.28;100.00;145943.53;4956821;28;20687;-64
2024/01/27 04:45:09;;;;;;;7.43;1.90;;;;;;;-1.27;100.00;145946.00;4956831;28;20238;-64
2024/01/27 04:47:36;;;;;;;4.77;2.10;;;;;;;-1.36;100.00;145924.97;4957989;28;20233;-64
2024/01/27 04:50:03;;;;;;;14.53;1.90;;;;;;;-1.32;100.00;145933.63;4954622;28;20228;-64
2024/01/27 04:52:30;;;;;;;7.67;1.73;;;;;;;-1.32;100.00;145934.84;4953825;28;20696;-64
2024/01/27 04:54:56;;;;;;;5.30;1.90;;;;;;;-1.39;100.00;145918.81;4955876;28;20271;-63
2024/01/27 04:57:24;;;;;;;5.93;1.73;;;;;;;-1.47;100.00;145899.06;4954600;28;20226;-63
2024/01/27 04:59:51;;;;;;;5.37;1.87;;;;;;;-1.49;100.00;145894.13;4956411;28;20226;-63
2024/01/27 05:02:18;;;;;;;7.33;2.03;;;;;;;-1.43;100.00;145908.94;4952161;28;20242;-63
2024/01/27 05:04:45;;;;;;;7.43;1.50;;;;;;;-1.42;100.00;145911.41;4956283;28;20237;-63
2024/01/27 05:07:12;;;;;;;4.97;1.60;;;;;;;-1.39;100.00;145917.56;4952341;28;20620;-63
2024/01/27 05:09:38;;;;;;;6.87;2.03;;;;;;;-1.38;100.00;145921.28;4954230;28;20234;-63
2024/01/27 05:12:06;;;;;;;10.00;2.37;;;;;;;-1.41;100.00;145913.88;4953556;28;20242;-63
2024/01/27 05:14:34;;;;;;;12.57;2.27;;;;;;;-1.43;100.00;145908.94;4951580;28;20742;-63
2024/01/27 05:17:00;;;;;;;7.43;1.70;;;;;;;-1.41;100.00;145912.63;4969120;28;20230;-63
2024/01/27 05:19:27;;;;;;;12.00;2.17;;;;;;;-1.44;100.00;145905.22;4955813;28;20221;-63
2024/01/27 05:21:53;;;;;;;8.63;1.83;;;;;;;-1.49;100.00;145894.13;4956485;28;20444;-63
2024/01/27 05:24:20;;;;;;;10.17;1.93;;;;;;;-1.49;100.00;145894.13;4963958;28;20218;-64
2024/01/27 05:26:47;;;;;;;3.67;2.07;;;;;;;-1.56;100.00;145878.03;4952831;28;20244;-64
2024/01/27 05:29:13;;;;;;;7.10;2.00;;;;;;;-1.53;100.00;145885.47;4952979;28;20241;-64
2024/01/27 05:31:43;;;;;;;7.50;1.83;;;;;;;-1.47;100.00;145899.06;4953792;28;20826;-64
2024/01/27 05:34:09;;;;;;;8.83;2.40;;;;;;;-1.54;100.00;145881.78;4967883;28;20291;-64
2024/01/27 05:36:36;;;;;;;5.70;2.10;;;;;;;-1.45;100.00;145902.75;4956917;28;20731;-64
2024/01/27 05:39:04;;;;;;;7.87;1.97;;;;;;;-1.51;100.00;145889.19;4956133;28;20733;-64
2024/01/27 05:41:31;;;;;;;7.70;2.03;;;;;;;-1.53;100.00;145885.47;4957216;28;20322;-64
2024/01/27 05:43:59;;;;;;;7.10;2.27;;;;;;;-1.52;100.00;145887.91;4957927;28;20241;-64
2024/01/27 05:46:26;;;;;;;6.17;1.97;;;;;;;-1.50;100.00;145891.66;4955990;28;20229;-64
2024/01/27 05:48:57;;;;;;;6.03;1.83;;;;;;;-1.57;100.00;145875.56;4955524;28;20585;-64
2024/01/27 05:51:24;;;;;;;6.83;1.57;;;;;;;-1.60;100.00;145866.97;4955138;28;20236;-64
2024/01/27 05:53:50;;;;;;;9.90;2.97;;;;;;;-1.50;100.00;145892.88;4956633;28;20323;-64
2024/01/27 05:56:18;;;;;;;7.00;1.80;;;;;;;-1.41;100.00;145913.88;4956058;28;20705;-64
2024/01/27 05:58:45;;;;;;;8.27;1.73;;;;;;;-1.50;100.00;145892.88;4959462;28;20374;-64
2024/01/27 06:01:11;;;;;;;9.33;1.97;;;;;;;-1.64;100.00;145859.56;4954032;28;20829;-63
2024/01/27 06:03:38;;;;;;;13.50;3.33;;;;;;;-1.57;100.00;145874.38;4958186;28;20235;-63
2024/01/27 06:06:06;;;;;;;10.63;2.07;;;;;;;-1.44;100.00;145906.47;4957302;28;20230;-64
2024/01/27 06:08:33;;;;;;;9.97;2.30;;;;;;;-1.30;100.00;145938.56;4955660;28;20235;-63
2024/01/27 06:11:00;;;;;;;12.97;2.63;;;;;;;-1.21;100.00;145962.03;4958170;28;20241;-64
2024/01/27 06:13:29;;;;;;;9.87;2.13;;;;;;;-1.24;100.00;145953.41;4953905;28;20696;-64
2024/01/27 06:15:55;;;;;;;6.67;2.20;;;;;;;-1.36;100.00;145924.97;4955888;28;20284;-64
2024/01/27 06:18:24;;;;;;;9.23;2.13;;;;;;;-1.40;100.00;145916.34;4953102;28;20735;-64
2024/01/27 06:20:51;;;;;;;12.03;2.10;;;;;;;-1.45;100.00;145902.75;4959838;28;20237;-65
2024/01/27 06:23:19;;;;;;;9.83;2.60;;;;;;;-1.34;100.00;145929.91;4952742;28;20613;-64
2024/01/27 06:25:45;;;;;;;9.80;2.40;;;;;;;-1.35;100.00;145927.44;4957994;28;20229;-64
2024/01/27 06:28:12;;;;;;;11.37;2.20;;;;;;;-1.41;100.00;145913.88;4954192;28;20234;-64
2024/01/27 06:30:39;;;;;;;9.57;2.93;;;;;;;-1.52;100.00;145886.72;4957261;28;20242;-64
2024/01/27 06:33:05;;;;;;;9.57;2.40;;;;;;;-1.61;100.00;145864.50;4958160;28;20236;-63
2024/01/27 06:35:32;;;;;;;7.80;2.83;;;;;;;-1.72;100.00;145838.59;4952956;28;20245;-63
2024/01/27 06:37:59;;;;;;;10.03;2.30;;;;;;;-1.75;100.00;145831.19;4958399;28;20283;-63
2024/01/27 06:40:27;;;;;;;10.67;2.40;;;;;;;-1.75;100.00;145831.19;4957515;28;20232;-64
2024/01/27 06:42:54;;;;;;;11.87;2.90;;;;;;;-1.70;100.00;145843.53;4958665;28;20269;-64
2024/01/27 06:45:21;;;;;;;11.23;2.00;;;;;;;-1.73;100.00;145837.31;4954392;28;20252;-64
2024/01/27 06:47:47;;;;;;;8.97;2.10;;;;;;;-1.63;100.00;145862.00;4955712;28;20240;-63
2024/01/27 06:50:15;;;;;;;8.17;2.17;;;;;;;-1.69;100.00;145847.19;4953678;28;20229;-63
2024/01/27 06:52:41;;;;;;;5.80;1.83;;;;;;;-1.71;100.00;145842.25;4958039;28;20235;-63
2024/01/27 06:55:10;;;;;;;10.93;2.40;;;;;;;-1.62;100.00;145863.28;4944463;28;20746;-63
2024/01/27 06:57:40;;;;;;;8.20;2.30;;;;;;;-1.67;100.00;145852.16;4954047;28;20230;-63
2024/01/27 07:00:08;;;;;;;5.13;2.20;;;;;;;-1.70;100.00;145844.72;4957274;28;20313;-63
2024/01/27 07:02:35;;;;;;;7.17;1.63;;;;;;;-1.68;100.00;145848.47;4953031;28;20241;-63
2024/01/27 07:05:02;;;;;;;13.37;2.20;;;;;;;-1.65;100.00;145855.88;4956690;28;20240;-63
2024/01/27 07:07:30;;;;;;;11.27;2.30;;;;;;;-1.61;100.00;145864.50;4956784;28;20627;-63
2024/01/27 07:09:57;;;;;;;5.87;1.70;;;;;;;-1.66;100.00;145854.59;4955304;28;20274;-64
2024/01/27 07:12:24;;;;;;;5.77;1.90;;;;;;;-1.72;100.00;145838.59;4954039;28;20324;-63
2024/01/27 07:14:54;;;;;;;9.03;2.17;;;;;;;-1.59;100.00;145869.44;4955824;28;20234;-63
2024/01/27 07:17:21;;;;;;;11.63;2.33;;;;;;;-1.58;100.00;145871.91;4952656;28;20629;-63
2024/01/27 07:19:48;;;;;;;7.97;1.93;;;;;;;-1.54;100.00;145881.78;4956601;28;20244;-63
2024/01/27 07:22:14;;;;;;;5.50;1.90;;;;;;;-1.57;100.00;145875.56;4954774;28;20697;-63
2024/01/27 07:24:41;;;;;;;8.10;2.23;;;;;;;-1.60;100.00;145866.97;4957236;28;20233;-63
2024/01/27 07:27:08;;;;;;;9.70;3.17;;;;;;;-1.53;100.00;145884.25;4955966;28;20221;-63
2024/01/27 07:29:34;;;;;;;8.10;2.40;;;;;;;-1.47;100.00;145899.06;4952432;28;20241;-63
2024/01/27 07:32:02;;;;;;;7.43;2.10;;;;;;;-1.39;100.00;145917.56;4956271;28;20236;-63
2024/01/27 07:34:29;;;;;;;8.77;2.40;;;;;;;-1.38;100.00;145921.28;4953899;28;20237;-63
2024/01/27 07:36:56;;;;;;;10.00;4.00;;;;;;;-1.36;100.00;145926.22;4959421;28;20245;-63
2024/01/27 07:39:23;;;;;;;11.83;3.53;;;;;;;-1.28;100.00;145943.53;4953307;28;20225;-63
2024/01/27 07:41:49;;;;;;;6.20;3.50;;;;;;;-1.29;100.00;145942.25;4953348;28;20237;-63
2024/01/27 07:44:16;;;;;;;10.90;4.73;;;;;;;-1.30;100.00;145939.78;4956668;28;20636;-64
2024/01/27 07:46:43;;;;;;;8.43;2.80;;;;;;;-1.26;100.00;145948.47;4948742;28;20232;-64
2024/01/27 07:49:12;;;;;;;11.37;4.47;;;;;;;-1.24;100.00;145954.59;4967328;28;20237;-64
2024/01/27 07:51:39;;;;;;;13.77;2.77;;;;;;;-1.19;100.00;145966.97;4957024;28;20330;-64
2024/01/27 07:54:06;;;;;;;11.10;2.27;;;;;;;-1.21;100.00;145962.03;4956468;28;20233;-64
2024/01/27 07:56:32;;;;;;;9.03;2.00;;;;;;;-1.17;100.00;145969.44;4951817;28;20322;-63
2024/01/27 07:58:59;;;;;;;6.07;1.67;;;;;;;-1.17;100.00;145970.69;4972528;28;20239;-63
2024/01/27 08:01:26;;;;;;;11.10;1.87;;;;;;;-1.09;100.00;145990.44;4951662;28;20450;-63
2024/01/27 08:03:53;;;;;;;8.90;1.67;;;;;;;-1.04;100.00;146001.53;4957551;28;20704;-63
2024/01/27 08:06:29;;;;;;;5.83;2.07;;;;;;;-1.04;100.00;146001.53;4952624;28;20242;-63
2024/01/27 08:08:55;;;;;;;19.67;6.30;;;;;;;-0.95;100.00;146023.78;4954378;28;20308;-63
2024/01/27 08:11:22;;;;;;;10.67;3.20;;;;;;;-0.91;100.00;146033.66;4952382;28;20238;-63
2024/01/27 08:13:49;;;;;;;5.70;1.83;;;;;;;-0.88;100.00;146038.59;4953610;28;20706;-63
2024/01/27 08:16:15;;;;;;;2.90;1.37;;;;;;;-0.87;100.00;146042.28;4968804;28;20238;-63
2024/01/27 08:18:44;;;;;;;5.60;1.73;;;;;;;-0.89;100.00;146037.34;4954682;28;20233;-63
2024/01/27 08:21:11;;;;;;;3.83;1.83;;;;;;;-0.83;100.00;146052.16;4951751;28;20238;-63
2024/01/27 08:23:39;;;;;;;5.97;1.03;;;;;;;-0.79;100.00;146062.06;4957221;28;20720;-63
2024/01/27 08:26:09;;;;;;;6.03;1.80;;;;;;;-0.79;100.00;146062.06;4958607;28;20228;-64
2024/01/27 08:28:35;;;;;;;5.47;1.43;;;;;;;-0.77;100.00;146067.00;4952420;28;20226;-64
2024/01/27 08:31:02;;;;;;;18.50;8.97;;;;;;;-0.72;100.00;146076.88;4955980;28;20233;-64
2024/01/27 08:33:30;;;;;;;8.60;4.40;;;;;;;-0.68;100.00;146088.03;4953680;28;20257;-64
2024/01/27 08:35:56;;;;;;;20.80;9.20;;;;;;;-0.61;100.00;146105.31;4955161;28;20264;-64
2024/01/27 08:38:23;;;;;;;29.93;15.27;;;;;;;-0.60;100.00;146106.53;4953698;28;20347;-64
2024/01/27 08:40:51;;;;;;;20.77;8.93;;;;;;;-0.54;100.00;146120.16;4957123;28;20238;-64
2024/01/27 08:43:17;;;;;;;20.60;8.67;;;;;;;-0.53;100.00;146123.84;4954224;28;20241;-64
2024/01/27 08:45:44;;;;;;;14.47;7.17;;;;;;;-0.46;100.00;146139.88;4967392;28;20742;-64
2024/01/27 08:48:11;;;;;;;14.73;6.90;;;;;;;-0.47;100.00;146138.66;4950735;28;20240;-64
2024/01/27 08:50:38;;;;;;;15.53;9.00;;;;;;;-0.41;100.00;146151.00;4952437;28;20226;-64
2024/01/27 08:53:05;;;;;;;11.10;4.33;;;;;;;-0.42;100.00;146148.53;4954924;28;20321;-63
2024/01/27 08:55:31;;;;;;;7.90;2.97;;;;;;;-0.38;100.00;146158.44;4950143;28;20230;-63
2024/01/27 08:57:59;;;;;;;6.80;2.23;;;;;;;-0.31;100.00;146175.75;4961369;28;20231;-63
2024/01/27 09:00:26;;;;;;;7.67;2.33;;;;;;;-0.30;100.00;146179.41;4950156;28;20237;-63
2024/01/27 09:02:53;;;;;;;5.13;1.63;;;;;;;-0.26;100.00;146186.84;4954514;28;20579;-63
2024/01/27 09:05:20;;;;;;;4.10;1.60;;;;;;;-0.21;100.00;146199.19;4959953;28;20225;-63
2024/01/27 09:07:46;;;;;;;9.73;1.50;;;;;;;-0.14;100.00;146216.50;4955687;28;20574;-63
2024/01/27 09:10:15;;;;;;;7.70;1.57;;;;;;;-0.04;100.00;146240.00;4950404;28;20237;-63
2024/01/27 09:12:42;;;;;;;3.73;1.53;;;;;;;0.02;100.00;146253.59;4956046;28;20702;-63
2024/01/27 09:15:10;;;;;;;4.83;1.40;;;;;;;0.13;100.00;146282.00;4958693;28;20709;-63
2024/01/27 09:17:37;;;;;;;6.03;1.50;;;;;;;0.26;100.00;146312.94;4958841;28;20226;-63
2024/01/27 09:20:04;;;;;;;5.83;1.60;;;;;;;0.33;100.00;146328.97;4958713;28;20588;-63
2024/01/27 09:22:31;;;;;;;6.03;1.83;;;;;;;0.44;100.00;146354.97;4956887;28;20260;-63
2024/01/27 09:24:57;;;;;;;7.43;2.77;;;;;;;0.59;100.00;146390.81;4974851;28;20233;-63
2024/01/27 09:27:24;;;;;;;15.23;6.40;;;;;;;0.72;100.00;146422.97;4955029;28;20223;-63
2024/01/27 09:29:50;;;;;;;13.30;6.40;;;;;;;0.88;100.00;146460.09;4960075;28;20233;-63
2024/01/27 09:32:18;;;;;;;16.53;6.63;;;;;;;1.04;100.00;146498.41;4956471;28;20249;-64
2024/01/27 09:34:45;;;;;;;12.77;6.13;;;;;;;1.11;100.00;146514.47;4958573;28;20243;-64
2024/01/27 09:37:12;;;;;;;14.23;3.90;;;;;;;1.16;100.00;146526.84;4956784;28;20228;-64
2024/01/27 09:39:39;;;;;;;11.20;5.90;;;;;;;1.29;100.00;146559.00;4957988;28;20235;-64
2024/01/27 09:42:08;;;;;;;9.07;5.37;;;;;;;1.43;100.00;146591.19;4957244;28;20249;-64
2024/01/27 09:44:35;;;;;;;19.63;8.60;;;;;;;1.53;100.00;146614.72;4957373;28;20332;-64
2024/01/27 09:47:03;;;;;;;14.83;7.27;;;;;;;1.60;100.00;146632.00;4959108;28;20234;-64
2024/01/27 09:49:32;;;;;;;17.20;8.17;;;;;;;1.65;100.00;146644.38;4967305;28;20230;-64
2024/01/27 09:51:59;;;;;;;17.23;7.30;;;;;;;1.71;100.00;146659.22;4955677;28;20233;-64
2024/01/27 09:54:25;;;;;;;12.43;5.87;;;;;;;1.69;100.00;146653.06;4970483;28;20326;-64
2024/01/27 09:56:53;;;;;;;11.30;6.60;;;;;;;1.78;100.00;146675.34;4956350;28;20242;-64
2024/01/27 09:59:21;;;;;;;15.37;6.57;;;;;;;1.79;100.00;146676.56;4955094;28;20233;-64
2024/01/27 10:01:51;;;;;;;13.00;6.73;;;;;;;1.83;100.00;146686.47;4959696;28;20278;-64
2024/01/27 10:04:19;;;;;;;14.40;7.43;;;;;;;1.91;100.00;146707.53;4955058;28;20234;-64
2024/01/27 10:06:50;;;;;;;15.87;8.17;;;;;;;2.02;100.00;146732.28;4958798;28;20253;-64
2024/01/27 10:09:17;;;;;;;12.83;6.33;;;;;;;2.10;100.00;146752.09;4957503;28;20214;-64
2024/01/27 10:11:47;;;;;;;14.27;7.07;;;;;;;2.14;100.00;146761.97;4959460;28;20237;-64
2024/01/27 10:14:14;;;;;;;14.63;7.43;;;;;;;2.11;100.00;146753.31;4952205;28;20230;-64
2024/01/27 10:16:42;;;;;;;19.40;7.87;;;;;;;2.15;100.00;146764.44;4955573;28;20230;-64
2024/01/27 10:19:15;;;;;;;15.57;8.47;;;;;;;2.18;100.00;146771.88;4953529;28;20230;-64
2024/01/27 10:21:42;;;;;;;21.30;8.00;;;;;;;2.34;100.00;146809.03;4956843;28;20241;-64
2024/01/27 10:24:10;;;;;;;22.93;11.17;;;;;;;2.37;100.00;146816.44;4960789;28;20751;-64
2024/01/27 10:26:37;;;;;;;14.43;8.27;;;;;;;2.51;100.00;146851.13;4961319;28;20241;-65
2024/01/27 10:29:03;;;;;;;17.17;8.60;;;;;;;2.66;100.00;146887.03;4959239;28;20742;-65
2024/01/27 10:31:32;;;;;;;20.43;8.40;;;;;;;2.76;100.00;146909.31;4954763;28;20239;-65
2024/01/27 10:33:58;;;;;;;18.70;8.03;;;;;;;2.92;100.00;146947.75;4962990;28;20269;-65
2024/01/27 10:36:26;;;;;;;14.80;8.00;;;;;;;2.97;100.00;146960.13;4953891;28;20237;-65
2024/01/27 10:38:53;;;;;;;22.20;9.97;;;;;;;2.92;100.00;146948.97;4963489;28;20234;-64
2024/01/27 10:41:24;;;;;;;23.57;9.67;;;;;;;2.83;100.00;146926.66;4953657;28;20241;-64
2024/01/27 10:43:52;;;;;;;16.70;9.53;;;;;;;2.87;100.00;146936.56;4955524;28;20732;-64
2024/01/27 10:46:21;;;;;;;17.23;9.03;;;;;;;2.89;100.00;146940.31;4954159;28;20717;-65
2024/01/27 10:48:51;;;;;;;15.87;9.27;;;;;;;2.88;100.00;146937.84;4956573;28;20242;-65
2024/01/27 10:51:23;;;;;;;21.23;9.87;;;;;;;2.98;100.00;146961.34;4959703;28;21169;-65
2024/01/27 10:53:55;;;;;;;16.20;8.97;;;;;;;2.97;100.00;146958.88;4956154;28;20225;-65
2024/01/27 10:56:24;;;;;;;19.97;9.50;;;;;;;2.98;100.00;146961.34;4953619;28;20223;-64
2024/01/27 10:58:52;;;;;;;17.17;9.77;;;;;;;3.01;100.00;146968.78;4972207;28;20229;-64
2024/01/27 11:01:22;;;;;;;20.40;8.90;;;;;;;3.03;100.00;146973.75;4954395;28;20234;-64
2024/01/27 11:03:50;;;;;;;16.77;8.67;;;;;;;3.05;100.00;146979.97;4955177;28;20240;-64
2024/01/27 11:06:21;;;;;;;20.93;10.33;;;;;;;3.06;100.00;146982.44;4952782;28;20226;-64
2024/01/27 11:08:48;;;;;;;18.52;9.90;;;;;;;3.13;100.00;146998.53;4958541;28;20507;-64
2024/01/27 11:11:15;;;;;;;23.20;12.40;;;;;;;3.18;100.00;147009.69;4954549;28;20230;-65
2024/01/27 11:13:47;;;;;;;25.13;12.37;;;;;;;3.30;100.00;147039.41;4957484;28;20244;-64
2024/01/27 11:16:18;;;;;;;20.20;10.23;;;;;;;3.39;100.00;147060.50;4953918;28;20222;-64
2024/01/27 11:18:45;;;;;;;19.50;9.50;;;;;;;3.37;100.00;147056.75;4954738;28;20305;-64